x

Port Washington, Wi (pwaw3) Weather Station

1:40am - Sun 30th Aug 2015 All times are CDT. -5 hours from GMT.

  • Wind
  • Air Temp 57°f
  • Sea Pressure 1017.9mb
  • Port Washington, Wi
  • Port Washington, Wi

More Historic Weather Station data

Upgrade to MSW Pro to gain access to the past 30 days of data for over 8000 Wavebouys and Weather Stations around the globe.

Join Pro

Comparision Forecast

View Surf forecast
   
Sun 08/30 1:40am  -  2 mph 1017.9mb 57f
1:30am 2 3 mph 1017.9mb 57f
1:20am 2 3 mph 1017.9mb 60f
1:10am  -  3 mph 1017.9mb 62f
1:00am 2 3 mph 1017.9mb 60f
12:40am  -  3 mph 1017.9mb 58f
12:30am  -  3 mph 1017.9mb 58f
12:20am 2 5 mph 1017.9mb 59f
12:10am  -  2 mph 1017.9mb 59f
12:00am 2 3 mph 1018.3mb 60f
Sat 08/29 11:40pm 1 3 mph 1018.3mb 58f
11:30pm 2 5 mph 1018.3mb 58f
11:20pm 1 3 mph 1018.3mb 62f
11:10pm 1 3 mph 1018.3mb 62f
11:00pm  -  5 mph 1018.3mb 62f
10:40pm 2 3 mph 1018.3mb 62f
10:30pm 1 3 mph 1018.3mb 62f
10:20pm  -  3 mph 1018.3mb 62f
10:10pm 2
mph
1018.3mb 62f
10:00pm  -  2 mph 1018.6mb 62f
9:40pm  -  1 mph 1018.6mb 62f
9:30pm  -  2 mph 1018.6mb 62f
9:20pm 1 2 mph 1018.6mb 62f
9:10pm  -  1 mph 1018.6mb 61f
9:00pm 1 2 mph 1018.6mb 60f
8:40pm 1
mph
1018.3mb 59f
8:30pm 1 3 mph 1018.3mb 59f
8:20pm 2 3 mph 1018.3mb 60f
8:10pm 3 5 mph 1018.3mb 61f
8:00pm 2 6 mph 1017.9mb 61f
7:40pm 5
mph
1018.3mb 60f
7:30pm 5 6 mph 1018.3mb 60f
7:20pm 3 6 mph 1017.9mb 60f
7:10pm 5
mph
1017.9mb 58f
7:00pm 3
mph
1017.9mb 58f
6:40pm 3 5 mph 1017.9mb 58f
6:30pm 5
mph
1017.9mb 58f
6:20pm 3 5 mph 1017.9mb 58f
6:10pm 3 6 mph 1017.9mb 59f
6:00pm 5 6 mph 1017.9mb 60f
5:40pm 5
mph
1017.9mb 60f
5:30pm 5
mph
1017.9mb 60f
5:20pm 3 6 mph 1017.9mb 60f
5:10pm 5 6 mph 1017.9mb 60f
5:00pm 5 6 mph 1017.9mb 60f
4:40pm 5
mph
1017.9mb 61f
4:30pm 3 5 mph 1017.9mb 59f
4:20pm 3 5 mph 1017.9mb 56f
4:10pm 3 6 mph 1017.9mb 56f
4:00pm 5 6 mph 1017.9mb 56f
3:40pm 3 5 mph 1018.3mb 56f
3:30pm 3 5 mph 1018.3mb 56f
3:20pm 3 5 mph 1018.3mb 57f
3:10pm 3 5 mph 1018.3mb 57f
3:00pm 3 5 mph 1018.3mb 58f
2:40pm 2 3 mph 1018.3mb 60f
2:30pm 2 3 mph 1018.3mb 60f
2:20pm 2 3 mph 1018.3mb 59f
2:10pm 2 3 mph 1018.3mb 57f
2:00pm 2 3 mph 1018.6mb 58f
1:40pm 2 3 mph 1018.6mb 57f
1:30pm 2 5 mph 1018.6mb 57f
1:20pm 5
mph
1018.3mb 56f
1:10pm 6 7 mph 1018.6mb 55f
1:00pm 6 9 mph 1018.6mb 55f
12:40pm 3 5 mph 1018.3mb 56f
12:30pm 5
mph
1018.6mb 56f
12:20pm 3
mph
1018.3mb 58f
12:10pm 2
mph
1018.3mb 58f
12:00pm 1 2 mph 1018.6mb 58f
11:40am  -  1 mph 1018.6mb 59f
11:30am  -  2 mph 1018.6mb 58f
11:20am  -  1 mph 1018.6mb 58f
11:10am  -  2 mph 1018.6mb 58f
10:40am 2 3 mph 1018.6mb 58f
10:30am  -  3 mph 1018.6mb 57f
10:20am 2 3 mph 1018.6mb 57f
10:10am 2 6 mph 1018.6mb 57f
10:00am 3 8 mph 1018.6mb 57f
9:40am 9 13 mph 1018.3mb 56f
9:30am 2 9 mph 1018.3mb 55f
9:20am 8 13 mph 1018.3mb 57f
9:10am 8 11 mph 1018.3mb 56f
9:00am 3 7 mph 1018.3mb 57f
8:40am 5 11 mph 1018.3mb 58f
8:30am 3 8 mph 1018.6mb 58f
8:20am 2 6 mph 1018.6mb 57f
8:10am 1 3 mph 1018.6mb 58f
8:00am  -  3 mph 1018.6mb 57f
7:40am 3 9 mph 1018.6mb 57f
7:30am 6 8 mph 1018.6mb 56f
7:20am 7 8 mph 1018.6mb 55f
7:10am 7 9 mph 1019mb 55f
7:00am 8 9 mph 1019mb 55f
6:40am 11 13 mph 1019.3mb 55f
6:30am 9 11 mph 1019.3mb 55f
6:20am 8 13 mph 1019.3mb 55f
6:10am 10 14 mph 1019.3mb 56f
6:00am 11 17 mph 1019mb 55f
5:40am 16 20 mph 1019mb 56f
5:30am 10 18 mph 1019.3mb 56f
5:20am 15 20 mph 1019mb 55f
5:10am 14 17 mph 1018.6mb 56f
5:00am 14 18 mph 1018.6mb 56f
4:40am 11 15 mph 1019mb 54f
4:30am 8 13 mph 1019mb 57f
4:20am 5 11 mph 1019mb 54f
4:10am 7 10 mph 1018.6mb 54f
4:00am 9 11 mph 1019mb 56f
3:40am 5 9 mph 1019mb 58f
3:30am 5 11 mph 1018.6mb 57f
3:20am 7 9 mph 1019mb 56f
3:10am 7 9 mph 1019mb 56f
3:00am 5 10 mph 1019mb 56f
2:50am 9 11 mph 1018.6mb 57f
2:40am 5 6 mph 1019.3mb 58f
2:30am 5 6 mph 1019.3mb 58f
2:20am 2 3 mph 1019.3mb 58f
2:10am 2 3 mph 1019.3mb 58f
2:00am  -  3 mph 1019.3mb 58f
1:50am 2 3 mph 1019.3mb 58f
1:40am 2 3 mph 1019.3mb 59f
1:30am 2 3 mph 1019.6mb 59f
1:20am 1 3 mph 1020mb 59f
1:10am 3 6 mph 1020mb 59f
1:00am 3 6 mph 1019.6mb 59f
12:50am 3 8 mph 1019.6mb 58f
12:40am 8 11 mph 1019.3mb 58f
12:30am 6 10 mph 1019.3mb 58f
12:20am 7 10 mph 1019.3mb 56f
12:10am 6 9 mph 1019.6mb 56f
12:00am 5 7 mph 1019.6mb 57f
Fri 08/28 11:50pm 5 8 mph 1019.6mb 57f
11:40pm 7 10 mph 1019.6mb 57f
11:30pm 7 9 mph 1019.6mb 57f
11:20pm 7 10 mph 1019.6mb 57f
11:10pm 8 13 mph 1020mb 59f
11:00pm 9 10 mph 1020mb 57f
10:40pm 9 10 mph 1020mb 56f
10:30pm 9 11 mph 1020mb 55f
10:20pm 8 9 mph 1020mb 57f
10:10pm 6 8 mph 1020mb 58f
10:00pm 5 6 mph 1020.3mb 60f
9:50pm 6 7 mph 1020.7mb 58f
9:40pm 6
mph
1020.3mb 59f
9:30pm  -  1 mph 1020.7mb 60f
9:20pm  -  2 mph 1020.3mb 59f
9:10pm  -  6 mph 1020.3mb 56f
9:00pm  -  1 mph 1020.3mb 59f
8:50pm  -  3 mph 1020.3mb 60f
8:40pm 3
mph
1020.7mb 57f
8:30pm 1 2 mph 1020.3mb 58f
8:20pm  -  3 mph 1020.3mb 60f
8:10pm  -  1 mph 1020mb 57f
8:00pm  -  1 mph 1020mb 58f
7:50pm  -  2 mph 1020mb 58f
7:40pm  -  2 mph 1020mb 58f
7:30pm  -  3 mph 1020mb 59f
7:20pm 2
mph
1020mb 58f
7:10pm  -  1 mph 1019.6mb 57f
7:00pm 1 2 mph 1019.3mb 57f
6:50pm  -  1 mph 1019.3mb 58f
6:40pm  -  2 mph 1019.3mb 58f
6:30pm 3
mph
1019mb 58f
6:20pm 1 2 mph 1019.3mb 58f
6:10pm  -  2 mph 1019.3mb 58f
6:00pm 2
mph
1019.3mb 58f
5:50pm 2 3 mph 1019.3mb 59f
5:40pm 2 5 mph 1019.6mb 59f
5:30pm 2 3 mph 1019.6mb 61f
5:20pm 3
mph
1019.6mb 60f
5:10pm  -  3 mph 1019.6mb 60f
5:00pm  -  1 mph 1019.6mb 60f
4:50pm  -  1 mph 1019.6mb 61f
4:40pm  -  mph 1019.6mb 61f
4:30pm  -  2 mph 1019.6mb 61f
4:20pm  -  1 mph 1019.6mb 61f
4:10pm  -  1 mph 1019.6mb 61f
4:00pm  -  1 mph 1019.6mb 61f
3:50pm  -  3 mph 1020mb 60f
3:40pm 2 5 mph 1020mb 60f
3:30pm  -  2 mph 1020mb 61f
3:20pm  -  2 mph 1020mb 61f
3:10pm  -  1 mph 1020mb 61f
3:00pm  -  2 mph 1020.3mb 62f
2:50pm  -  1 mph 1020.3mb 61f
2:40pm  -  1 mph 1020.3mb 60f
2:30pm  -  mph 1020.3mb 59f
2:20pm  -  2 mph 1020.3mb 59f
2:10pm 1 2 mph 1020.3mb 60f
2:00pm  -  2 mph 1020.3mb 60f
1:50pm  -  2 mph 1020.3mb 61f
1:40pm  -  2 mph 1020.3mb 61f
1:30pm  -  2 mph 1020.3mb 61f
1:20pm  -  2 mph 1020.3mb 60f
1:10pm  -  2 mph 1020.7mb 60f
1:00pm  -  2 mph 1020.7mb 60f
12:50pm 2
mph
1021mb 60f
12:40pm 1 2 mph 1021mb 60f
12:30pm  -  2 mph 1021mb 60f
12:20pm  -  1 mph 1021mb 60f
12:10pm  -  2 mph 1021mb 60f
12:00pm  -  1 mph 1021mb 59f
11:50am  -  2 mph 1021mb 58f
11:40am 2
mph
1021mb 57f
11:30am  -  1 mph 1021mb 58f
11:20am  -  1 mph 1021.3mb 59f
11:10am  -  1 mph 1021.3mb 59f
11:00am  -  1 mph 1021.3mb 57f
10:50am  -  1 mph 1021.3mb 56f
10:40am  -  2 mph 1021.3mb 56f
10:30am  -  1 mph 1021.3mb 57f
10:20am  -  2 mph 1021.3mb 56f
10:10am  -  2 mph 1021.3mb 56f
10:00am 1 2 mph 1021mb 56f
9:50am 1 3 mph 1021.3mb 55f
9:40am 3
mph
1021mb 54f
9:30am 2 3 mph 1021mb 56f
9:20am  -  2 mph 1021mb 56f
9:10am 2
mph
1021mb 56f
9:00am  -  1 mph 1021mb 55f
8:50am  -  1 mph 1021mb 53f
8:40am 1
mph
1021mb 54f
8:30am  -  1 mph 1021mb 54f
8:20am  -  1 mph 1021.3mb 53f
8:10am  -  1 mph 1021.3mb 53f
8:00am  -  2 mph 1021.3mb 53f
7:50am  -  3 mph 1021.3mb 52f
7:40am 2 3 mph 1021.3mb 53f
7:30am 2 3 mph 1021mb 53f
7:20am 2
mph
1021mb 52f
7:10am 1 2 mph 1021.3mb 52f
7:00am  -  1 mph 1021.3mb 51f
6:50am  -  1 mph 1021.3mb 50f
6:40am  -  1 mph 1021mb 50f
6:30am  -  1 mph 1021mb 50f
6:20am  -  1 mph 1021mb 49f
6:10am 1
mph
1020.7mb 50f
6:00am  -  2 mph 1020.7mb 50f
5:50am 1 2 mph 1020.7mb 50f
5:40am  -  2 mph 1020.7mb 52f
5:30am  -  2 mph 1020.7mb 53f
5:20am 1
mph
1020.3mb 53f
5:10am  -  1 mph 1020.3mb 52f
5:00am  -  2 mph 1020.3mb 51f
4:50am  -  1 mph 1020.3mb 51f
4:40am  -  1 mph 1020.3mb 50f
4:30am  -  2 mph 1020.3mb 50f
4:20am  -  1 mph 1020.3mb 50f
4:10am  -  1 mph 1020.3mb 50f
4:00am 1 2 mph 1020.3mb 50f
3:50am 1 2 mph 1020.3mb 51f
3:40am 1 2 mph 1020.3mb 52f
3:30am  -  2 mph 1020.3mb 53f
3:20am  -  1 mph 1020.7mb 53f
3:10am  -  1 mph 1020.7mb 52f
3:00am  -  1 mph 1020.3mb 52f
2:50am  -  1 mph 1020.3mb 52f
2:40am  -  1 mph 1020.7mb 54f
2:30am 1 2 mph 1020.7mb 55f
2:20am  -  2 mph 1020.3mb 56f
2:10am 1 2 mph 1020.3mb 56f
2:00am 1 2 mph 1020.7mb 56f
1:50am 1 2 mph 1020.7mb 57f
1:40am 1 2 mph 1020.7mb 57f
1:30am 2 5 mph 1020.7mb 56f
1:20am 3
mph
1020.7mb 54f
1:10am 1 3 mph 1020.7mb 54f
1:00am  -  2 mph 1021mb 53f
12:50am  -  1 mph 1021mb 52f
12:40am  -  2 mph 1020.7mb 53f
12:30am 1 5 mph 1020.7mb 55f
12:20am 1 3 mph 1020.7mb 54f
12:10am 2 3 mph 1020.7mb 56f
12:00am 2 3 mph 1021mb 56f
Thu 08/27 11:50pm 3
mph
1020.7mb 54f
11:40pm 2
mph
1020.7mb 53f
11:30pm  -  mph 1020.7mb 52f
11:20pm  -  1 mph 1020.7mb 52f
11:10pm  -  1 mph 1020.7mb 51f
11:00pm  -  1 mph 1020.7mb 51f
10:50pm  -  1 mph 1020.7mb 51f
10:40pm  -  mph 1020.7mb 52f
10:30pm  -  1 mph 1020.7mb 52f
10:20pm  -  mph 1021mb 53f
10:10pm  -  1 mph 1021mb 53f
10:00pm  -  1 mph 1021mb 53f
9:50pm 1 2 mph 1021mb 53f
9:40pm  -  2 mph 1021mb 53f
9:30pm  -  1 mph 1021mb 53f
9:20pm 1 2 mph 1021mb 53f
9:10pm 1 3 mph 1021mb 53f
9:00pm 2 3 mph 1021mb 54f
8:50pm 3
mph
1021mb 54f
8:40pm 3
mph
1021mb 53f
8:30pm  -  3 mph 1021mb 53f
8:20pm 3 6 mph 1021mb 54f
8:10pm 5 7 mph 1021mb 55f
8:00pm 3 8 mph 1021mb 55f
7:50pm 3 8 mph 1021mb 55f
7:40pm 5 9 mph 1021mb 55f
7:30pm 5 8 mph 1021mb 55f
7:20pm 3 9 mph 1020.7mb 56f
7:10pm 5 9 mph 1020.7mb 56f
7:00pm 6 9 mph 1020.3mb 56f
6:50pm 5 9 mph 1020.3mb 57f
6:40pm 5 9 mph 1020.7mb 57f
6:30pm 6 9 mph 1020.7mb 57f
6:20pm 6 9 mph 1020.3mb 58f
6:10pm 7 10 mph 1020.7mb 59f
6:00pm 5 10 mph 1021mb 59f
5:50pm 6 10 mph 1021mb 60f
5:40pm 7 10 mph 1021mb 60f
5:30pm 6 11 mph 1021mb 60f
5:20pm 7 10 mph 1020.7mb 60f
5:10pm 7 10 mph 1020.7mb 60f
5:00pm 6 11 mph 1020.7mb 61f
4:50pm 7 10 mph 1020.7mb 61f
4:40pm 6 10 mph 1020.7mb 61f
4:30pm 6 11 mph 1020.7mb 61f
4:20pm 5 11 mph 1020.7mb 62f
4:10pm 7 11 mph 1020.7mb 62f
4:00pm 5 10 mph 1020.7mb 62f
3:50pm 6 14 mph 1021mb 63f
3:40pm 7 13 mph 1021mb 63f
3:30pm 6 10 mph 1021mb 63f
3:20pm 5 9 mph 1021mb 63f
3:10pm 6 9 mph 1021.3mb 63f
3:00pm 7 10 mph 1021.3mb 63f
2:50pm 7 10 mph 1021.3mb 63f
2:40pm 6 11 mph 1021.7mb 64f
2:30pm 5 9 mph 1021.7mb 64f
2:20pm 6 10 mph 1022mb 63f
2:10pm 5 9 mph 1022mb 63f
2:00pm 5 8 mph 1022mb 64f
1:50pm 6 8 mph 1022.4mb 63f
1:40pm 5 8 mph 1022.4mb 63f
1:30pm 5 8 mph 1022.4mb 63f
1:20pm 5 8 mph 1022.4mb 62f
1:10pm 6 9 mph 1022.4mb 62f
1:00pm 6 9 mph 1022.4mb 62f
12:50pm 6 9 mph 1022.7mb 62f
12:40pm 7 9 mph 1022.4mb 63f
12:30pm 6 10 mph 1022.4mb 62f
12:20pm 6 9 mph 1022.7mb 62f
12:10pm 8 9 mph 1022.7mb 62f
12:00pm 6 9 mph 1022.7mb 62f
11:50am 7 10 mph 1022.7mb 61f
11:40am 7 10 mph 1022.7mb 61f
11:30am 8 10 mph 1022.7mb 61f
11:20am 7 10 mph 1022.7mb 60f
11:10am 7 9 mph 1022.7mb 58f
11:00am 6 8 mph 1022.7mb 57f
10:50am 6 7 mph 1022.7mb 57f
10:40am 5 6 mph 1022.7mb 57f
10:30am 3 7 mph 1022.7mb 56f
10:20am 6 7 mph 1023mb 58f
10:10am 5 7 mph 1022.7mb 60f
10:00am 5 8 mph 1023mb 60f
9:50am 7 9 mph 1023mb 60f
9:40am 6 7 mph 1022.7mb 59f
9:30am 3 6 mph 1022.7mb 58f
9:20am 5 8 mph 1022.7mb 58f
9:10am 5 8 mph 1022.7mb 57f
9:00am 5 8 mph 1022.7mb 57f
8:50am 6 8 mph 1022.7mb 56f
8:40am 3 5 mph 1023mb 55f
8:30am 3 6 mph 1022.7mb 54f
8:20am 5 8 mph 1023mb 55f
8:10am 8 9 mph 1023.4mb 54f
8:00am 7 8 mph 1023.7mb 55f
7:50am 6 7 mph 1023.7mb 58f
7:40am 3 5 mph 1023.7mb 57f
7:30am 1 5 mph 1023.4mb 54f
7:20am 3 5 mph 1023.4mb 53f
7:10am 2 3 mph 1023.7mb 52f
7:00am 2 3 mph 1023.4mb 52f
6:50am 2 3 mph 1023.4mb 51f
6:40am 2 3 mph 1023mb 51f
6:30am 2 3 mph 1023mb 50f
6:20am 1 3 mph 1023mb 49f
6:10am  -  2 mph 1022.7mb 51f
6:00am 1 5 mph 1022.7mb 51f
5:50am 5
mph
1022.4mb 51f
5:40am 2 3 mph 1022.4mb 51f
5:30am 2
mph
1022mb 51f
5:20am  -  2 mph 1022mb 51f
5:10am 1 2 mph 1021.7mb 53f
5:00am 1 3 mph 1021.7mb 52f
4:50am 2 3 mph 1021.7mb 51f
4:40am  -  2 mph 1021.7mb 51f
4:30am 1 3 mph 1021.7mb 51f
4:20am 2 3 mph 1021.7mb 52f
4:10am 2 5 mph 1021.7mb 53f
4:00am 3
mph
1021.7mb 53f
3:50am 2 3 mph 1021.7mb 53f
3:40am  -  3 mph 1021.7mb 54f
3:30am 2 3 mph 1021.7mb 54f
3:20am 2 3 mph 1021.3mb 55f
3:10am 2 3 mph 1021.3mb 54f
3:00am 2 3 mph 1021.3mb 54f
2:50am 1 3 mph 1021.3mb 54f
2:40am 2 3 mph 1021.3mb 55f
2:30am 2 5 mph 1021.3mb 55f
2:20am 3 5 mph 1021.3mb 55f
2:10am 3 5 mph 1021.3mb 55f
2:00am 3 6 mph 1021.3mb 56f
1:50am 5 6 mph 1021.3mb 56f
1:40am 5 6 mph 1021.3mb 56f
1:30am 6 7 mph 1021.3mb 56f
1:20am 6 7 mph 1021.3mb 56f
1:10am 5 6 mph 1021.7mb 55f
1:00am 3 5 mph 1021.7mb 54f
12:50am 3 5 mph 1021.7mb 54f
12:40am 3
mph
1021.7mb 54f
12:30am 2 3 mph 1022mb 54f
12:20am 3 5 mph 1022mb 54f
12:10am 2 3 mph 1022mb 53f
12:00am 2 3 mph 1022mb 54f
Wed 08/26 11:50pm 2 3 mph 1022mb 54f
11:40pm 2
mph
1022mb 53f
11:30pm 1 3 mph 1022mb 53f
11:20pm 2 3 mph 1022mb 53f
11:10pm 2 3 mph 1022mb 53f
11:00pm 2
mph
1022mb 52f
10:50pm 2
mph
1022mb 52f
10:40pm 1 2 mph 1022.4mb 52f
10:30pm 1 2 mph 1022.4mb 52f
10:20pm  -  1 mph 1022.4mb 51f
10:10pm  -  1 mph 1022.4mb 52f
10:00pm  -  mph 1022.4mb 52f
9:50pm  -  1 mph 1022.4mb 51f
9:40pm  -  1 mph 1022mb 52f
9:30pm  -  mph 1022mb 52f
9:20pm  -  1 mph 1022mb 52f
9:10pm  -  1 mph 1022mb 52f
9:00pm  -  1 mph 1021.7mb 53f
8:50pm  -  1 mph 1021.7mb 53f
8:40pm 1
mph
1021.7mb 53f
8:30pm  -  1 mph 1021.7mb 53f
8:20pm  -  1 mph 1021.3mb 53f
8:10pm  -  2 mph 1021.3mb 53f
8:00pm  -  2 mph 1021.3mb 54f
7:50pm  -  1 mph 1021.3mb 53f
7:40pm  -  2 mph 1021.3mb 54f
7:30pm  -  2 mph 1021.3mb 55f
7:20pm 1 2 mph 1021.3mb 56f
7:10pm  -  1 mph 1021.3mb 58f
7:00pm  -  1 mph 1021.3mb 58f
6:50pm  -  2 mph 1021.3mb 58f
6:40pm 2 3 mph 1021.3mb 60f
6:30pm 2 3 mph 1021.3mb 60f
6:20pm  -  2 mph 1021.3mb 59f
6:10pm  -  5 mph 1021.3mb 59f
6:00pm 2
mph
1021.3mb 60f
5:50pm 1 2 mph 1021.3mb 60f
5:40pm  -  1 mph 1021.3mb 59f
5:30pm  -  3 mph 1021.3mb 59f
5:20pm  -  2 mph 1021.3mb 60f
5:10pm 1 2 mph 1021.3mb 59f
5:00pm  -  3 mph 1021.3mb 59f
4:50pm  -  3 mph 1021.3mb 59f
4:40pm 2 3 mph 1021.3mb 58f
4:30pm 2 5 mph 1021.3mb 58f
4:20pm 3 5 mph 1021.3mb 59f
4:10pm 1 3 mph 1021.7mb 59f
4:00pm 3 5 mph 1021.7mb 60f
3:50pm  -  2 mph 1021.7mb 60f
3:40pm 2 5 mph 1021.7mb 60f
3:30pm 2 5 mph 1021.7mb 60f
3:20pm 3 6 mph 1021.7mb 60f
3:10pm 6 8 mph 1021.7mb 59f
3:00pm 7 9 mph 1021.7mb 59f
2:50pm 7 9 mph 1021.7mb 64f
2:40pm 3 9 mph 1021.7mb 67f
2:30pm 5 7 mph 1021.7mb 66f
2:20pm 6 9 mph 1021.7mb 66f
2:10pm 5 9 mph 1021.7mb 66f
2:00pm 6 8 mph 1021.7mb 66f
1:50pm 7 9 mph 1021.7mb 66f
1:40pm 6 9 mph 1021.7mb 66f
1:30pm 5 10 mph 1021.7mb 66f
1:20pm 7 10 mph 1021.7mb 66f
1:10pm 8 14 mph 1021.7mb 66f
1:00pm 7 11 mph 1021.7mb 66f
12:50pm 5 13 mph 1021.7mb 66f
12:40pm 6 9 mph 1021.7mb 67f
12:30pm 7 13 mph 1021.7mb 66f
12:20pm 9 13 mph 1021.7mb 66f
12:10pm 7 15 mph 1022mb 65f
12:00pm 9 16 mph 1022mb 66f
11:50am 10 15 mph 1022mb 65f
11:40am 11 17 mph 1022mb 67f
11:30am 9 14 mph 1022mb 66f
11:20am 8 13 mph 1022mb 65f
11:10am 11 15 mph 1022mb 64f
11:00am 9 13 mph 1022mb 64f
10:50am 7 11 mph 1022mb 63f
10:40am 5 11 mph 1022mb 63f
10:30am 9 14 mph 1022mb 63f
10:20am 7 10 mph 1022mb 63f
10:10am 5 10 mph 1022mb 62f
10:00am 6 10 mph 1022mb 62f
9:50am 7 10 mph 1022mb 62f
9:40am 5 8 mph 1022mb 61f
9:30am 5 8 mph 1022mb 61f
9:20am 5 7 mph 1022mb 61f
9:10am 3 6 mph 1022mb 61f
9:00am 5 8 mph 1022mb 60f
8:50am 5 7 mph 1022mb 60f
8:40am 7 8 mph 1022mb 60f
8:30am 5 7 mph 1022mb 60f
8:20am 7 9 mph 1021.7mb 60f
8:10am 5 7 mph 1021.7mb 60f